East Alton, Illinois
Current Conditions -  °F | °C
As of 9:45 AM on Thursday 27 Nov 2014 (Local Time) from KALN Reporting Station
Overcast Overcast  
Wind Chill: 20°   Ceiling: 2700
Heat Index: 30°   Visibility: 8mi
Dew Point: 23°   Wind: 14mph
Humidity: 75%   Direction: 310°NW
Pressure: 30.48"   Gusts: NA
Location:  38.88°N, 90.11°W
Report Text: KALN 271545Z 31012KT 8SM OVC027 M01/M05 A3048
Loading
Personal Weather Stations






























Interactive Weather Map New forecast layout! Learn more

10-Day Weather Forecast

Advertisements
Track Severe Weather on mobile